Time;durP1;ratioP1;P1;durP2;ratioP2;P2;SDS_P1;SDS_P2;PMS_P1;PMS_P2;Temp;Humidity;BMP_temperature;BMP_pressure;BME280_temperature;BME280_humidity;BME280_pressure;Samples;Min_cycle;Max_cycle;Signal;HPM_P1;HPM_P2
2023/05/25 00:01:47;;;;;;;8.27;7.47;;;20.80;99.90;;;;;;5096795;28;20256;-80
2023/05/25 00:04:15;;;;;;;8.80;7.87;;;20.80;99.90;;;;;;5114925;28;20963;-80
2023/05/25 00:06:44;;;;;;;9.00;8.10;;;20.80;99.90;;;;;;5115082;28;20570;-84
2023/05/25 00:09:09;;;;;;;9.73;8.60;;;20.80;99.90;;;;;;5114821;28;20415;-79
2023/05/25 00:11:35;;;;;;;8.53;7.63;;;20.80;99.90;;;;;;5114993;28;20452;-84
2023/05/25 00:14:01;;;;;;;10.20;8.67;;;20.80;99.90;;;;;;5114682;28;20198;-80
2023/05/25 00:16:27;;;;;;;9.53;8.57;;;20.80;99.90;;;;;;5114638;28;20487;-84
2023/05/25 00:18:56;;;;;;;9.37;8.30;;;20.70;99.90;;;;;;5114723;28;20213;-82
2023/05/25 00:21:23;;;;;;;9.80;8.10;;;20.70;99.90;;;;;;5130526;27;20682;-84
2023/05/25 00:23:48;;;;;;;8.87;7.87;;;20.70;99.90;;;;;;5130271;27;20422;-79
2023/05/25 00:26:14;;;;;;;10.40;9.30;;;20.70;99.90;;;;;;5114732;28;20496;-79
2023/05/25 00:28:40;;;;;;;11.20;9.03;;;20.70;99.90;;;;;;5096603;28;20279;-80
2023/05/25 00:31:05;;;;;;;10.00;8.47;;;20.70;99.90;;;;;;5114330;28;20206;-79
2023/05/25 00:33:31;;;;;;;11.33;8.30;;;20.70;99.90;;;;;;5130373;27;20178;-79
2023/05/25 00:35:57;;;;;;;10.73;8.80;;;20.60;99.90;;;;;;5096036;28;20205;-84
2023/05/25 00:38:23;;;;;;;9.37;8.47;;;20.60;99.90;;;;;;5130313;27;20179;-80
2023/05/25 00:40:56;;;;;;;9.60;8.63;;;20.60;99.90;;;;;;5130130;27;20837;-83
2023/05/25 00:43:22;;;;;;;8.80;7.90;;;20.60;99.90;;;;;;5130294;27;20175;-84
2023/05/25 00:45:50;;;;;;;10.57;9.17;;;20.60;99.90;;;;;;5129996;27;20839;-84
2023/05/25 00:48:17;;;;;;;12.17;9.17;;;20.50;99.90;;;;;;5096000;28;20175;-83
2023/05/25 00:50:44;;;;;;;10.07;9.07;;;20.50;99.90;;;;;;5114243;28;20463;-79
2023/05/25 00:53:12;;;;;;;10.33;9.33;;;20.50;99.90;;;;;;5095962;28;20973;-83
2023/05/25 00:56:05;;;;;;;12.17;9.40;;;20.50;99.90;;;;;;5129939;27;20446;-80
2023/05/25 00:58:33;;;;;;;10.07;9.00;;;20.50;99.90;;;;;;5095929;28;20407;-79
2023/05/25 01:01:01;;;;;;;12.50;10.43;;;20.40;99.90;;;;;;5129933;28;20455;-80
2023/05/25 01:03:33;;;;;;;9.93;9.00;;;20.40;99.90;;;;;;5095847;28;20403;-79
2023/05/25 01:06:00;;;;;;;11.07;9.80;;;20.40;99.90;;;;;;5130739;27;20532;-84
2023/05/25 01:08:27;;;;;;;11.43;10.23;;;20.40;99.90;;;;;;5118413;28;20400;-84
2023/05/25 01:10:56;;;;;;;11.43;10.07;;;20.40;99.90;;;;;;5099887;28;20970;-84
2023/05/25 01:13:22;;;;;;;11.87;10.60;;;20.30;99.90;;;;;;5134198;27;20426;-80
2023/05/25 01:15:48;;;;;;;11.40;9.47;;;20.30;99.90;;;;;;5117954;28;20470;-84
2023/05/25 01:18:15;;;;;;;11.33;10.20;;;20.30;99.90;;;;;;5134081;27;20411;-80
2023/05/25 01:21:11;;;;;;;12.57;11.27;;;20.30;99.90;;;;;;5099775;28;20434;-79
2023/05/25 01:24:04;;;;;;;19.17;12.33;;;20.30;99.90;;;;;;5118121;28;20789;-79
2023/05/25 01:26:36;;;;;;;12.90;11.20;;;20.30;99.90;;;;;;5114981;28;20584;-80
2023/05/25 01:29:03;;;;;;;13.37;10.83;;;20.30;99.90;;;;;;5099744;28;20473;-84
2023/05/25 01:31:29;;;;;;;14.80;11.60;;;20.30;99.90;;;;;;5118129;28;20422;-82
2023/05/25 01:33:55;;;;;;;14.00;10.90;;;20.30;99.90;;;;;;5117816;28;20433;-83
2023/05/25 01:36:21;;;;;;;12.60;11.30;;;20.30;99.90;;;;;;5117813;28;20962;-79
2023/05/25 01:38:48;;;;;;;18.20;13.50;;;20.30;99.90;;;;;;5117885;28;20489;-80
2023/05/25 01:41:13;;;;;;;14.20;12.70;;;20.30;99.90;;;;;;5099434;28;20206;-79
2023/05/25 01:43:40;;;;;;;14.50;12.13;;;20.30;99.90;;;;;;5117787;28;20400;-80
2023/05/25 01:46:18;;;;;;;13.50;11.80;;;20.40;99.90;;;;;;5099288;28;20223;-84
2023/05/25 01:48:58;;;;;;;14.60;11.83;;;20.40;99.90;;;;;;5099428;28;20432;-84
2023/05/25 01:51:38;;;;;;;12.87;11.57;;;20.30;99.90;;;;;;5117779;28;20446;-84
2023/05/25 01:54:35;;;;;;;12.47;11.13;;;20.30;99.90;;;;;;5117446;28;20423;-79
2023/05/25 01:57:06;;;;;;;15.77;11.77;;;20.30;99.90;;;;;;5117172;28;20478;-84
2023/05/25 01:59:32;;;;;;;12.47;11.17;;;20.30;99.90;;;;;;5099079;28;20423;-80
2023/05/25 02:01:59;;;;;;;14.03;12.43;;;20.20;99.90;;;;;;5117814;28;20433;-80
2023/05/25 02:04:26;;;;;;;13.87;12.13;;;20.20;99.90;;;;;;5098970;28;20502;-80
2023/05/25 02:06:51;;;;;;;14.80;12.60;;;20.20;99.90;;;;;;5117035;28;20442;-80
2023/05/25 02:09:17;;;;;;;17.73;11.60;;;20.20;99.90;;;;;;5117395;28;20767;-80
2023/05/25 02:11:43;;;;;;;12.47;10.77;;;20.20;99.90;;;;;;5133078;27;20210;-84
2023/05/25 02:14:09;;;;;;;14.40;12.17;;;20.20;99.90;;;;;;5098797;28;20175;-83
2023/05/25 02:16:35;;;;;;;13.77;12.27;;;20.20;99.90;;;;;;5132535;27;20239;-84
2023/05/25 02:19:01;;;;;;;14.67;12.17;;;20.20;99.90;;;;;;5117035;28;20409;-83
2023/05/25 02:21:27;;;;;;;14.10;12.50;;;20.10;99.90;;;;;;5117053;28;20438;-80
2023/05/25 02:23:53;;;;;;;16.10;12.30;;;20.10;99.90;;;;;;5132704;27;20509;-79
2023/05/25 02:26:19;;;;;;;13.90;12.20;;;20.10;99.90;;;;;;5132750;27;20680;-84
2023/05/25 02:28:45;;;;;;;16.00;13.30;;;20.10;99.90;;;;;;5132750;27;20176;-83
2023/05/25 02:31:11;;;;;;;19.37;14.00;;;20.10;99.90;;;;;;5116893;28;20457;-84
2023/05/25 02:33:36;;;;;;;17.20;13.73;;;20.10;99.90;;;;;;5116619;28;20599;-80
2023/05/25 02:36:04;;;;;;;14.70;13.07;;;20.10;99.90;;;;;;5116499;28;20608;-80
2023/05/25 02:38:29;;;;;;;14.80;12.17;;;20.10;99.90;;;;;;5098535;28;20170;-84
2023/05/25 02:40:55;;;;;;;15.90;13.77;;;20.10;99.90;;;;;;5116598;28;20450;-84
2023/05/25 02:43:21;;;;;;;14.67;13.13;;;20.00;99.90;;;;;;5116695;28;20174;-83
2023/05/25 02:45:46;;;;;;;14.60;12.80;;;20.00;99.90;;;;;;5116363;28;20239;-84
2023/05/25 02:48:12;;;;;;;15.67;13.67;;;20.00;99.90;;;;;;5132361;27;20172;-83
2023/05/25 02:50:38;;;;;;;14.90;13.30;;;20.00;99.90;;;;;;5116217;28;20201;-79
2023/05/25 02:53:03;;;;;;;17.57;14.67;;;20.00;99.90;;;;;;5132566;27;20174;-79
2023/05/25 02:55:29;;;;;;;18.40;14.37;;;20.00;99.90;;;;;;5116283;28;20198;-83
2023/05/25 02:57:55;;;;;;;16.97;14.33;;;20.00;99.90;;;;;;5116368;28;20179;-83
2023/05/25 03:00:20;;;;;;;16.03;14.10;;;20.00;99.90;;;;;;5132024;27;20195;-80
2023/05/25 03:02:47;;;;;;;15.77;14.07;;;20.00;99.90;;;;;;5098167;28;20190;-84
2023/05/25 03:05:15;;;;;;;18.47;15.10;;;20.00;99.90;;;;;;5115998;28;20219;-84
2023/05/25 03:07:41;;;;;;;16.43;13.70;;;20.00;99.90;;;;;;5098052;28;20459;-84
2023/05/25 03:10:08;;;;;;;15.97;14.23;;;20.00;99.90;;;;;;5116014;28;20446;-84
2023/05/25 03:12:34;;;;;;;18.67;15.23;;;20.00;99.90;;;;;;5116410;28;20422;-80
2023/05/25 03:14:59;;;;;;;18.20;14.87;;;20.10;99.90;;;;;;5131703;27;20528;-80
2023/05/25 03:17:25;;;;;;;17.40;15.27;;;20.10;99.90;;;;;;5097523;28;20248;-84
2023/05/25 03:19:51;;;;;;;16.60;14.77;;;20.10;99.90;;;;;;5115741;28;20198;-79
2023/05/25 03:22:16;;;;;;;18.37;13.90;;;20.20;99.90;;;;;;5097678;28;20178;-80
2023/05/25 03:24:42;;;;;;;17.77;15.30;;;20.20;99.90;;;;;;5115657;28;20465;-83
2023/05/25 03:27:08;;;;;;;19.20;15.03;;;20.20;99.90;;;;;;5097567;28;20207;-80
2023/05/25 03:29:33;;;;;;;19.73;15.53;;;20.20;99.90;;;;;;5096684;28;20185;-79
2023/05/25 03:31:59;;;;;;;17.77;14.90;;;20.20;99.90;;;;;;5115845;28;20177;-84
2023/05/25 03:34:25;;;;;;;19.43;15.30;;;20.20;99.90;;;;;;5097409;28;20174;-83
2023/05/25 03:36:52;;;;;;;19.20;15.67;;;20.20;99.90;;;;;;5115364;28;20667;-84
2023/05/25 03:39:17;;;;;;;23.27;16.03;;;20.20;99.90;;;;;;5097190;28;20419;-80
2023/05/25 03:41:43;;;;;;;22.40;16.63;;;20.20;99.90;;;;;;5131287;27;20449;-80
2023/05/25 03:44:09;;;;;;;19.20;16.00;;;20.10;99.90;;;;;;5115369;28;20198;-80
2023/05/25 03:46:35;;;;;;;21.93;18.43;;;20.10;99.90;;;;;;5115521;28;20203;-80
2023/05/25 03:49:01;;;;;;;21.13;16.90;;;20.10;99.90;;;;;;5115165;28;20895;-84
2023/05/25 03:51:28;;;;;;;21.73;16.37;;;20.10;99.90;;;;;;5131391;27;20570;-84
2023/05/25 03:53:53;;;;;;;23.10;17.90;;;20.10;99.90;;;;;;5115113;28;20398;-80
2023/05/25 03:56:20;;;;;;;22.23;16.37;;;20.10;99.90;;;;;;5115235;28;20449;-84
2023/05/25 03:58:45;;;;;;;21.87;16.27;;;20.10;99.90;;;;;;5096913;28;20178;-84
2023/05/25 04:01:12;;;;;;;19.60;15.67;;;20.10;99.90;;;;;;5115094;28;20795;-84
2023/05/25 04:03:38;;;;;;;18.00;15.20;;;20.20;99.90;;;;;;5114339;28;20177;-80
2023/05/25 04:06:03;;;;;;;20.73;15.30;;;20.10;99.90;;;;;;5114586;28;20527;-84
2023/05/25 04:08:29;;;;;;;20.40;16.30;;;20.20;99.90;;;;;;5096407;28;20191;-80
2023/05/25 04:10:56;;;;;;;18.83;15.27;;;20.20;99.90;;;;;;5113677;28;20193;-84
2023/05/25 04:13:22;;;;;;;18.30;15.60;;;20.10;99.90;;;;;;5114800;28;20186;-79
2023/05/25 04:15:48;;;;;;;218.10;138.97;;;20.10;99.90;;;;;;5114301;28;20445;-79
2023/05/25 04:18:14;;;;;;;45.83;30.87;;;20.10;99.90;;;;;;5113898;28;20536;-83
2023/05/25 04:20:40;;;;;;;29.50;22.30;;;20.10;99.90;;;;;;5094436;28;20466;-83
2023/05/25 04:23:06;;;;;;;18.60;15.57;;;20.10;99.90;;;;;;5112748;28;20407;-78
2023/05/25 04:25:32;;;;;;;19.60;14.97;;;20.10;99.90;;;;;;5093080;28;20268;-83
2023/05/25 04:27:57;;;;;;;19.63;13.70;;;20.10;99.90;;;;;;5092843;28;20644;-82
2023/05/25 04:30:23;;;;;;;19.37;15.00;;;20.10;99.90;;;;;;5093614;28;20204;-79
2023/05/25 04:32:49;;;;;;;17.90;14.00;;;20.10;99.90;;;;;;5112458;28;20495;-79
2023/05/25 04:35:15;;;;;;;14.90;13.30;;;20.10;99.90;;;;;;5123282;27;20205;-79
2023/05/25 04:37:41;;;;;;;16.00;13.17;;;20.00;99.90;;;;;;5131946;27;20431;-79
2023/05/25 04:40:12;;;;;;;17.30;13.40;;;20.10;99.90;;;;;;5134497;27;20446;-83
2023/05/25 04:42:39;;;;;;;20.33;13.90;;;20.10;99.90;;;;;;5115501;27;20225;-79
2023/05/25 04:45:07;;;;;;;17.63;14.30;;;20.20;99.90;;;;;;5099969;27;21110;-77
2023/05/25 04:47:33;;;;;;;269.93;160.10;;;20.20;99.90;;;;;;5094168;28;20493;-83
2023/05/25 04:50:00;;;;;;;138.70;85.30;;;20.20;99.90;;;;;;5100124;28;20427;-79
2023/05/25 04:52:25;;;;;;;32.30;21.23;;;20.30;99.90;;;;;;5105335;28;20175;-82
2023/05/25 04:54:52;;;;;;;27.10;19.13;;;20.30;99.90;;;;;;5098664;28;20458;-79
2023/05/25 04:57:18;;;;;;;22.30;14.83;;;20.30;99.90;;;;;;5104223;28;20226;-79
2023/05/25 04:59:43;;;;;;;17.20;13.70;;;20.30;99.90;;;;;;5104945;27;20449;-79
2023/05/25 05:02:09;;;;;;;14.13;12.30;;;20.30;99.90;;;;;;5104035;28;20779;-82
2023/05/25 05:04:36;;;;;;;15.27;12.10;;;20.40;99.90;;;;;;5099397;28;20211;-79
2023/05/25 05:07:02;;;;;;;17.30;13.10;;;20.40;99.90;;;;;;5105382;28;20261;-82
2023/05/25 05:09:28;;;;;;;15.63;12.00;;;20.40;99.90;;;;;;5099886;28;20536;-82
2023/05/25 05:11:53;;;;;;;14.93;12.00;;;20.40;99.90;;;;;;5085515;28;20486;-82
2023/05/25 05:14:19;;;;;;;19.13;12.30;;;20.40;99.90;;;;;;5083634;28;20188;-78
2023/05/25 05:16:46;;;;;;;19.33;12.37;;;20.40;99.90;;;;;;5078370;28;20231;-79
2023/05/25 05:19:12;;;;;;;16.37;12.37;;;20.50;99.90;;;;;;5075816;28;20412;-79
2023/05/25 05:21:38;;;;;;;14.50;11.90;;;20.60;99.90;;;;;;5083168;28;20457;-83
2023/05/25 05:24:04;;;;;;;17.00;12.33;;;20.70;99.90;;;;;;5084547;28;21159;-79
2023/05/25 05:26:29;;;;;;;26.13;14.87;;;20.70;99.90;;;;;;5113065;27;20200;-78
2023/05/25 05:28:55;;;;;;;568.73;156.43;;;20.70;99.90;;;;;;5078086;28;20317;-81
2023/05/25 05:31:22;;;;;;;162.83;46.80;;;20.70;99.90;;;;;;5112673;28;20204;-83
2023/05/25 05:33:48;;;;;;;163.87;43.20;;;20.70;99.90;;;;;;5087187;28;20176;-79
2023/05/25 05:36:14;;;;;;;27.40;14.23;;;20.70;99.90;;;;;;5118614;28;20455;-83
2023/05/25 05:38:41;;;;;;;24.60;14.30;;;20.70;99.90;;;;;;5092405;28;20587;-83
2023/05/25 05:41:12;;;;;;;18.27;13.17;;;20.70;99.90;;;;;;5090087;28;20468;-82
2023/05/25 05:43:42;;;;;;;17.00;12.83;;;20.80;99.90;;;;;;5082385;28;20425;-82
2023/05/25 05:46:11;;;;;;;20.10;12.33;;;20.80;99.90;;;;;;5089038;28;20579;-84
2023/05/25 05:48:37;;;;;;;23.77;13.00;;;20.90;99.90;;;;;;5112054;28;20416;-82
2023/05/25 05:51:04;;;;;;;19.23;13.57;;;20.90;99.90;;;;;;5098622;28;20497;-82
2023/05/25 05:53:31;;;;;;;15.27;13.67;;;20.90;99.90;;;;;;5092761;28;20472;-82
2023/05/25 05:55:58;;;;;;;19.10;13.40;;;21.00;99.90;;;;;;5094064;28;20467;-84
2023/05/25 05:58:28;;;;;;;18.17;12.30;;;21.00;99.90;;;;;;5089477;28;20471;-83
2023/05/25 06:00:55;;;;;;;17.37;13.17;;;21.00;99.90;;;;;;5094988;28;20453;-84
2023/05/25 06:03:24;;;;;;;18.50;13.37;;;21.00;99.90;;;;;;5091250;28;20987;-82
2023/05/25 06:05:50;;;;;;;16.70;12.73;;;21.00;99.90;;;;;;5073962;28;20504;-84
2023/05/25 06:08:15;;;;;;;18.77;13.97;;;21.00;99.90;;;;;;5076127;28;20437;-82
2023/05/25 06:10:41;;;;;;;18.07;14.20;;;21.00;99.90;;;;;;5094781;28;20452;-84
2023/05/25 06:13:07;;;;;;;22.23;13.83;;;21.10;99.90;;;;;;5091271;28;20183;-82
2023/05/25 06:15:33;;;;;;;18.40;12.93;;;21.10;99.90;;;;;;5093105;28;20201;-81
2023/05/25 06:17:59;;;;;;;19.13;12.80;;;21.20;99.90;;;;;;5113116;27;20412;-84
2023/05/25 06:20:25;;;;;;;19.93;13.50;;;21.20;99.90;;;;;;5094079;28;20454;-85
2023/05/25 06:22:50;;;;;;;17.70;14.03;;;21.20;99.90;;;;;;5095684;28;20691;-82
2023/05/25 06:25:16;;;;;;;17.43;13.80;;;21.20;99.90;;;;;;5087231;28;20927;-82
2023/05/25 06:27:42;;;;;;;23.93;13.03;;;21.20;99.90;;;;;;5122323;27;20196;-82
2023/05/25 06:30:08;;;;;;;738.03;434.90;;;21.30;99.90;;;;;;5110538;28;20207;-81
2023/05/25 06:32:33;;;;;;;348.40;215.03;;;21.40;99.90;;;;;;5108690;27;20236;-82
2023/05/25 06:34:59;;;;;;;52.20;36.77;;;21.40;99.90;;;;;;5117656;27;20440;-83
2023/05/25 06:37:26;;;;;;;49.23;31.10;;;21.50;99.90;;;;;;5131068;27;20192;-83
2023/05/25 06:39:52;;;;;;;34.50;25.20;;;21.50;99.90;;;;;;5114907;28;20332;-83
2023/05/25 06:42:18;;;;;;;20.17;13.30;;;21.50;99.90;;;;;;5096810;28;20547;-83
2023/05/25 06:44:43;;;;;;;24.97;16.23;;;21.60;99.90;;;;;;5119013;27;20289;-83
2023/05/25 06:47:09;;;;;;;20.23;14.10;;;21.60;99.90;;;;;;5123666;27;20183;-82
2023/05/25 06:49:34;;;;;;;17.60;12.50;;;21.60;99.90;;;;;;5128963;27;20215;-82
2023/05/25 06:52:00;;;;;;;18.90;13.57;;;21.70;99.90;;;;;;5094005;27;20195;-83
2023/05/25 06:54:26;;;;;;;19.20;13.03;;;21.70;99.90;;;;;;5096332;28;20194;-81
2023/05/25 06:56:52;;;;;;;14.43;11.60;;;21.80;99.90;;;;;;5110626;28;20196;-82
2023/05/25 06:59:18;;;;;;;16.37;11.90;;;21.70;99.90;;;;;;5125908;27;20854;-82
2023/05/25 07:01:47;;;;;;;15.53;11.70;;;21.60;99.90;;;;;;5126987;27;20705;-82
2023/05/25 07:04:13;;;;;;;15.13;11.73;;;21.60;99.90;;;;;;5109184;28;20179;-83
2023/05/25 07:06:39;;;;;;;18.90;12.83;;;21.50;99.90;;;;;;5095124;28;20462;-84
2023/05/25 07:09:05;;;;;;;21.90;14.20;;;21.50;99.90;;;;;;5111084;28;20455;-82
2023/05/25 07:11:30;;;;;;;21.40;14.10;;;21.50;99.90;;;;;;5090026;28;20587;-82
2023/05/25 07:13:56;;;;;;;28.57;14.93;;;21.60;99.90;;;;;;5084394;28;20451;-83
2023/05/25 07:16:21;;;;;;;31.03;15.20;;;21.80;99.90;;;;;;5082663;28;20615;-83
2023/05/25 07:18:47;;;;;;;35.77;15.43;;;21.90;99.90;;;;;;5093763;28;20171;-82
2023/05/25 07:21:13;;;;;;;17.83;14.10;;;22.00;99.90;;;;;;5093303;28;20567;-84
2023/05/25 07:23:39;;;;;;;19.60;13.43;;;22.10;99.90;;;;;;5130030;27;20186;-82
2023/05/25 07:26:05;;;;;;;19.43;13.10;;;22.10;99.90;;;;;;5114480;27;20764;-84
2023/05/25 07:28:31;;;;;;;16.03;11.87;;;22.20;99.90;;;;;;5113165;28;20412;-83
2023/05/25 07:30:58;;;;;;;15.13;10.80;;;22.20;99.90;;;;;;5095867;28;20479;-83
2023/05/25 07:33:23;;;;;;;13.33;10.63;;;22.30;99.90;;;;;;5112702;28;20749;-83
2023/05/25 07:35:50;;;;;;;14.10;11.13;;;22.40;99.90;;;;;;5085382;28;20574;-82
2023/05/25 07:38:16;;;;;;;14.40;11.37;;;22.40;99.90;;;;;;5093984;28;20194;-83
2023/05/25 07:40:43;;;;;;;16.70;12.00;;;22.40;99.90;;;;;;5087095;28;20980;-83
2023/05/25 07:43:08;;;;;;;19.17;12.63;;;22.50;99.90;;;;;;5090759;28;20270;-83
2023/05/25 07:45:34;;;;;;;15.87;11.73;;;22.60;99.90;;;;;;5093759;28;20554;-81
2023/05/25 07:48:00;;;;;;;309.63;177.93;;;22.60;99.90;;;;;;5092706;28;20229;-82
2023/05/25 07:50:25;;;;;;;290.77;166.40;;;22.70;99.90;;;;;;5094908;28;20191;-84
2023/05/25 07:52:51;;;;;;;88.17;52.57;;;22.70;99.90;;;;;;5091892;28;20774;-83
2023/05/25 07:55:19;;;;;;;42.17;27.43;;;22.80;99.90;;;;;;5110084;28;20640;-84
2023/05/25 07:57:44;;;;;;;24.53;15.20;;;22.80;99.90;;;;;;5112219;28;20597;-84
2023/05/25 08:00:10;;;;;;;17.40;13.20;;;22.90;99.90;;;;;;5103932;28;20448;-84
2023/05/25 08:02:36;;;;;;;12.47;10.67;;;22.90;99.90;;;;;;5070057;28;20254;-82
2023/05/25 08:05:04;;;;;;;11.40;10.23;;;22.90;99.90;;;;;;5083548;28;21273;-82
2023/05/25 08:07:32;;;;;;;12.27;10.10;;;23.00;99.90;;;;;;5083673;28;20303;-82
2023/05/25 08:09:58;;;;;;;11.80;10.60;;;23.00;99.90;;;;;;5095188;27;21335;-83
2023/05/25 08:12:23;;;;;;;12.77;10.47;;;23.10;99.90;;;;;;5066108;28;20455;-84
2023/05/25 08:14:49;;;;;;;10.67;8.80;;;23.10;99.90;;;;;;5087564;28;20700;-83
2023/05/25 08:17:15;;;;;;;11.17;9.63;;;23.20;99.90;;;;;;5118264;27;20224;-82
2023/05/25 08:19:41;;;;;;;11.77;9.97;;;23.30;99.90;;;;;;5125327;27;20437;-84
2023/05/25 08:22:07;;;;;;;13.10;9.43;;;23.30;99.90;;;;;;5095462;28;20489;-81
2023/05/25 08:24:33;;;;;;;10.27;8.93;;;23.40;99.90;;;;;;5098098;28;20203;-83
2023/05/25 08:26:59;;;;;;;12.33;9.80;;;23.40;99.90;;;;;;5114262;27;20775;-82
2023/05/25 08:29:25;;;;;;;10.60;9.50;;;23.50;99.90;;;;;;5097261;28;20183;-83
2023/05/25 08:31:51;;;;;;;9.70;8.80;;;23.50;99.90;;;;;;5086000;27;20456;-83
2023/05/25 08:34:16;;;;;;;9.83;8.83;;;23.50;99.90;;;;;;5085088;28;20190;-82
2023/05/25 08:36:43;;;;;;;12.63;10.03;;;23.50;99.90;;;;;;5089287;28;20674;-81
2023/05/25 08:39:09;;;;;;;10.60;8.20;;;23.50;99.90;;;;;;5110210;28;20195;-83
2023/05/25 08:41:39;;;;;;;10.80;9.67;;;23.50;99.90;;;;;;5090625;28;20473;-82
2023/05/25 08:44:07;;;;;;;53.97;44.67;;;23.50;99.90;;;;;;5104669;28;20443;-81
2023/05/25 08:46:33;;;;;;;429.37;296.27;;;23.60;99.90;;;;;;5091450;28;20479;-81
2023/05/25 08:49:07;;;;;;;71.43;49.77;;;23.50;99.90;;;;;;5101726;28;20433;-83
2023/05/25 08:51:36;;;;;;;23.80;17.03;;;23.60;99.90;;;;;;5087476;28;21232;-83
2023/05/25 08:54:08;;;;;;;11.43;10.23;;;23.60;99.90;;;;;;5089438;28;20463;-81
2023/05/25 08:56:39;;;;;;;11.20;10.10;;;23.70;99.90;;;;;;5106369;28;20597;-82
2023/05/25 08:59:16;;;;;;;9.30;8.27;;;23.70;99.90;;;;;;5122786;27;20424;-82
2023/05/25 09:01:45;;;;;;;8.03;7.30;;;23.70;99.90;;;;;;5098349;28;20557;-81
2023/05/25 09:04:18;;;;;;;8.90;6.77;;;23.80;99.90;;;;;;5111602;28;20420;-82
2023/05/25 09:06:44;;;;;;;11.67;8.70;;;23.90;99.90;;;;;;5089822;28;20491;-82
2023/05/25 09:09:11;;;;;;;8.30;7.60;;;23.90;99.90;;;;;;5092133;28;20506;-81
2023/05/25 09:11:38;;;;;;;9.23;8.40;;;24.00;99.90;;;;;;5104670;28;20472;-83
2023/05/25 09:14:05;;;;;;;8.03;7.23;;;24.00;99.90;;;;;;5089722;28;21000;-81
2023/05/25 09:16:32;;;;;;;9.30;8.00;;;24.10;99.90;;;;;;5089906;28;20485;-83
2023/05/25 09:18:58;;;;;;;10.70;7.27;;;24.10;99.90;;;;;;5106811;28;20422;-83
2023/05/25 09:21:25;;;;;;;8.53;7.73;;;24.10;99.90;;;;;;5105768;28;20489;-83
2023/05/25 09:23:51;;;;;;;8.60;7.70;;;24.20;99.90;;;;;;5110910;28;20424;-83
2023/05/25 09:26:20;;;;;;;12.10;7.80;;;24.10;99.90;;;;;;5092985;28;21028;-83
2023/05/25 09:28:46;;;;;;;10.20;7.20;;;24.00;99.90;;;;;;5110213;28;20440;-82
2023/05/25 09:31:14;;;;;;;9.17;8.00;;;24.00;99.90;;;;;;5112533;28;21058;-82
2023/05/25 09:33:40;;;;;;;8.93;7.97;;;23.90;99.90;;;;;;5113920;27;20962;-81
2023/05/25 09:36:06;;;;;;;9.80;7.93;;;23.80;99.90;;;;;;5111158;27;20471;-82
2023/05/25 09:38:32;;;;;;;8.27;7.43;;;23.80;99.90;;;;;;5096989;28;20804;-83
2023/05/25 09:40:59;;;;;;;9.90;8.90;;;23.90;99.90;;;;;;5097252;28;20452;-83
2023/05/25 09:43:25;;;;;;;8.87;7.97;;;23.90;99.90;;;;;;5115202;28;20432;-83
2023/05/25 09:45:52;;;;;;;71.93;56.30;;;23.80;99.90;;;;;;5086482;28;20888;-82
2023/05/25 09:48:20;;;;;;;140.20;102.17;;;23.90;99.90;;;;;;5098840;28;20454;-81
2023/05/25 09:50:45;;;;;;;33.67;24.20;;;23.80;99.90;;;;;;5113187;27;20888;-82
2023/05/25 09:53:11;;;;;;;18.33;14.23;;;23.70;99.90;;;;;;5109240;28;20432;-83
2023/05/25 09:55:37;;;;;;;18.43;14.23;;;23.80;99.90;;;;;;5110550;27;20200;-84
2023/05/25 09:58:04;;;;;;;19.83;10.53;;;23.80;99.90;;;;;;5099824;28;20425;-83
2023/05/25 10:00:30;;;;;;;9.13;8.17;;;23.80;99.90;;;;;;5093860;28;21076;-83
2023/05/25 10:02:56;;;;;;;9.10;8.20;;;23.90;99.90;;;;;;5113725;27;20972;-83
2023/05/25 10:05:22;;;;;;;8.60;7.10;;;23.80;99.90;;;;;;5103649;27;20471;-83
2023/05/25 10:07:50;;;;;;;7.47;6.77;;;23.80;99.90;;;;;;5103801;28;20436;-82
2023/05/25 10:10:15;;;;;;;7.43;6.77;;;23.70;99.90;;;;;;5094377;28;20221;-83
2023/05/25 10:12:43;;;;;;;6.77;6.17;;;23.50;99.90;;;;;;5092475;27;20464;-82
2023/05/25 10:15:12;;;;;;;7.53;6.90;;;23.50;99.90;;;;;;5115843;27;20213;-81
2023/05/25 10:17:45;;;;;;;7.83;6.73;;;23.60;99.90;;;;;;5083952;28;20514;-82
2023/05/25 10:20:13;;;;;;;9.20;7.00;;;23.70;99.90;;;;;;5088682;28;20506;-82
2023/05/25 10:22:55;;;;;;;9.17;7.10;;;23.60;99.90;;;;;;5091063;28;21137;-83
2023/05/25 10:25:43;;;;;;;9.50;6.80;;;23.70;99.90;;;;;;5092965;28;21944;-84
2023/05/25 10:28:27;;;;;;;6.90;6.30;;;23.70;99.90;;;;;;5078709;28;20505;-81
2023/05/25 10:30:54;;;;;;;7.00;6.30;;;23.70;99.90;;;;;;5081559;28;20470;-83
2023/05/25 10:33:20;;;;;;;359.97;226.57;;;23.70;99.90;;;;;;5086648;28;20435;-82
2023/05/25 10:35:48;;;;;;;23.70;19.20;;;23.60;99.90;;;;;;5089241;28;20443;-83
2023/05/25 10:38:14;;;;;;;15.50;13.67;;;23.80;99.90;;;;;;5087356;28;20481;-82
2023/05/25 10:40:40;;;;;;;15.70;9.67;;;23.90;99.90;;;;;;5087312;28;20463;-84
2023/05/25 10:43:05;;;;;;;12.20;10.90;;;24.10;99.90;;;;;;5086220;28;20460;-84
2023/05/25 10:45:32;;;;;;;10.87;8.00;;;24.20;99.90;;;;;;5078941;28;20418;-84
2023/05/25 10:47:58;;;;;;;7.70;6.87;;;24.40;99.90;;;;;;5118910;27;20220;-82
2023/05/25 10:50:25;;;;;;;7.57;6.67;;;24.40;99.90;;;;;;5082397;28;20843;-84
2023/05/25 10:53:00;;;;;;;7.70;7.00;;;24.60;99.90;;;;;;5091022;28;20591;-81
2023/05/25 10:55:30;;;;;;;8.30;6.77;;;24.80;99.90;;;;;;5091042;28;20444;-84
2023/05/25 10:58:13;;;;;;;8.30;7.40;;;24.90;99.90;;;;;;5088528;28;20412;-82
2023/05/25 11:00:40;;;;;;;9.40;7.40;;;24.90;99.90;;;;;;5087320;28;20530;-83
2023/05/25 11:03:06;;;;;;;7.87;6.87;;;25.00;99.90;;;;;;5084908;28;20920;-83
2023/05/25 11:05:37;;;;;;;9.53;7.70;;;25.00;99.90;;;;;;5077835;28;20525;-83
2023/05/25 11:08:05;;;;;;;7.80;6.97;;;25.00;99.90;;;;;;5083783;28;20465;-83
2023/05/25 11:10:46;;;;;;;7.00;6.40;;;25.10;99.90;;;;;;5118014;27;20876;-81
2023/05/25 11:13:30;;;;;;;9.13;6.77;;;25.20;99.90;;;;;;5089218;28;20427;-82
2023/05/25 11:16:24;;;;;;;8.97;7.03;;;25.20;99.90;;;;;;5100539;27;20557;-83
2023/05/25 11:18:58;;;;;;;12.40;7.80;;;25.30;99.90;;;;;;5084932;28;20464;-82
2023/05/25 11:21:26;;;;;;;7.90;7.00;;;25.30;99.90;;;;;;5098304;28;20463;-84
2023/05/25 11:24:01;;;;;;;9.50;7.63;;;25.30;99.90;;;;;;5093060;28;21580;-83
2023/05/25 11:26:32;;;;;;;7.77;6.40;;;25.40;99.90;;;;;;5076618;28;20486;-83
2023/05/25 11:28:59;;;;;;;7.30;6.53;;;25.50;99.90;;;;;;5087415;28;20921;-83
2023/05/25 11:31:32;;;;;;;10.43;7.37;;;25.50;99.90;;;;;;5084683;28;20892;-84
2023/05/25 11:34:03;;;;;;;8.53;7.10;;;25.50;99.90;;;;;;5080825;28;20448;-82
2023/05/25 11:36:32;;;;;;;8.63;7.30;;;25.50;99.90;;;;;;5077893;28;20559;-83
2023/05/25 11:39:02;;;;;;;8.00;7.00;;;25.50;99.90;;;;;;5076371;28;20514;-83
2023/05/25 11:41:28;;;;;;;9.93;6.80;;;25.50;99.90;;;;;;5080520;28;20449;-85
2023/05/25 11:43:57;;;;;;;8.00;7.20;;;25.50;99.90;;;;;;5099443;28;20441;-84
2023/05/25 11:46:23;;;;;;;7.83;7.13;;;25.50;99.90;;;;;;5115522;27;21060;-84
2023/05/25 11:48:54;;;;;;;7.60;6.87;;;25.50;99.90;;;;;;5079051;28;20433;-83
2023/05/25 11:51:24;;;;;;;7.80;7.10;;;25.60;99.90;;;;;;5083982;28;20560;-85
2023/05/25 11:53:50;;;;;;;9.10;7.63;;;25.60;99.90;;;;;;5083712;28;20934;-84
2023/05/25 11:56:17;;;;;;;8.80;7.90;;;25.60;99.90;;;;;;5088766;28;20448;-84
2023/05/25 11:58:44;;;;;;;10.37;8.50;;;25.50;99.90;;;;;;5084302;28;20458;-83
2023/05/25 12:01:15;;;;;;;8.27;7.40;;;25.50;99.90;;;;;;5085140;28;20547;-83
2023/05/25 12:03:41;;;;;;;7.60;6.80;;;25.60;99.90;;;;;;5082959;28;20556;-83
2023/05/25 12:06:07;;;;;;;8.93;8.03;;;25.60;99.90;;;;;;5084823;28;20722;-84
2023/05/25 12:08:34;;;;;;;9.03;7.27;;;25.60;99.90;;;;;;5118957;27;20990;-84
2023/05/25 12:11:00;;;;;;;9.63;7.20;;;25.60;99.90;;;;;;5085074;28;20993;-84
2023/05/25 12:13:26;;;;;;;7.57;6.87;;;25.70;99.90;;;;;;5082590;28;20432;-83
2023/05/25 12:15:59;;;;;;;7.63;6.93;;;25.70;99.90;;;;;;5089611;28;20471;-83
2023/05/25 12:18:27;;;;;;;8.80;7.30;;;25.70;99.90;;;;;;5105438;28;20467;-84
2023/05/25 12:20:54;;;;;;;10.20;7.27;;;25.70;99.90;;;;;;5091632;28;20471;-84
2023/05/25 12:23:20;;;;;;;9.20;8.23;;;25.70;99.90;;;;;;5085380;28;20690;-84
2023/05/25 12:25:46;;;;;;;9.67;6.53;;;25.70;99.90;;;;;;5089488;28;20486;-84
2023/05/25 12:28:13;;;;;;;10.83;7.70;;;25.70;99.90;;;;;;5103325;28;20184;-83
2023/05/25 12:30:40;;;;;;;8.70;7.37;;;25.60;99.90;;;;;;5087858;28;20533;-83
2023/05/25 12:33:06;;;;;;;11.03;7.47;;;25.60;99.90;;;;;;5109246;28;20436;-83
2023/05/25 12:35:48;;;;;;;11.60;7.60;;;25.60;99.90;;;;;;5107816;28;20769;-83